createdAt,value
2018-02-25T00:09:49.252Z,3
2018-02-25T00:19:49.235Z,4
2018-02-25T00:29:49.213Z,4
2018-02-25T00:39:49.187Z,4
2018-02-25T00:49:49.303Z,4
2018-02-25T00:59:49.235Z,3
2018-02-25T01:09:49.200Z,4
2018-02-25T01:19:49.297Z,5
2018-02-25T01:29:49.330Z,4
2018-02-25T01:39:49.328Z,3
2018-02-25T01:49:49.252Z,4
2018-02-25T01:59:49.321Z,4
2018-02-25T02:09:49.299Z,3
2018-02-25T02:19:49.306Z,3
2018-02-25T02:29:49.296Z,3
2018-02-25T02:39:49.392Z,4
2018-02-25T02:49:49.367Z,3
2018-02-25T02:59:49.268Z,3
2018-02-25T03:09:49.311Z,3
2018-02-25T03:19:49.245Z,4
2018-02-25T03:29:49.347Z,5
2018-02-25T03:39:49.331Z,5
2018-02-25T03:49:49.869Z,3
2018-02-25T03:59:49.385Z,4
2018-02-25T04:09:49.307Z,4
2018-02-25T04:19:49.405Z,4
2018-02-25T04:29:49.312Z,5
2018-02-25T04:39:49.424Z,5
2018-02-25T04:49:49.379Z,4
2018-02-25T04:59:49.458Z,5
2018-02-25T05:09:49.462Z,4
2018-02-25T05:19:49.452Z,5
2018-02-25T05:29:49.431Z,5
2018-02-25T05:39:49.347Z,5
2018-02-25T05:49:49.418Z,5
2018-02-25T05:59:49.369Z,4
2018-02-25T06:09:49.388Z,5
2018-02-25T06:19:49.422Z,4
2018-02-25T06:29:49.474Z,4
2018-02-25T06:39:49.392Z,4
2018-02-25T06:49:49.502Z,5
2018-02-25T06:59:49.431Z,5
2018-02-25T07:09:49.715Z,4
2018-02-25T07:19:49.500Z,5
2018-02-25T07:29:49.412Z,5
2018-02-25T07:39:49.455Z,4
2018-02-25T07:49:49.518Z,5
2018-02-25T07:59:49.598Z,5
2018-02-25T08:09:49.493Z,4
2018-02-25T08:19:49.618Z,5
2018-02-25T08:29:49.494Z,4
2018-02-25T08:39:49.489Z,5
2018-02-25T08:49:49.488Z,4
2018-02-25T08:59:49.431Z,5
2018-02-25T09:09:49.600Z,4
2018-02-25T09:19:49.567Z,3
2018-02-25T09:29:50.511Z,3
2018-02-25T09:39:49.615Z,3
2018-02-25T09:49:49.597Z,4
2018-02-25T09:59:49.628Z,3
2018-02-25T10:09:49.589Z,4
2018-02-25T10:19:49.691Z,3
2018-02-25T10:29:49.552Z,3
2018-02-25T10:39:49.558Z,3
2018-02-25T10:49:49.603Z,2
2018-02-25T10:59:49.644Z,3
2018-02-25T11:09:49.569Z,2
2018-02-25T11:19:49.822Z,3
2018-02-25T11:29:49.879Z,2
2018-02-25T11:39:49.727Z,2
2018-02-25T11:49:49.614Z,3
2018-02-25T11:59:49.883Z,3
2018-02-25T12:09:49.763Z,2
2018-02-25T12:19:49.732Z,2
2018-02-25T12:29:49.822Z,3
2018-02-25T12:39:49.661Z,2
2018-02-25T12:49:49.867Z,3
2018-02-25T12:59:49.660Z,3
2018-02-25T13:09:49.749Z,2
2018-02-25T13:19:49.803Z,2
2018-02-25T13:29:49.654Z,2
2018-02-25T13:39:49.681Z,2
2018-02-25T13:49:49.663Z,2
2018-02-25T13:59:50.010Z,2
2018-02-25T14:09:49.773Z,2
2018-02-25T14:19:49.847Z,2
2018-02-25T14:29:49.870Z,2
2018-02-25T14:39:49.991Z,2
2018-02-25T14:49:49.848Z,2
2018-02-25T15:00:19.813Z,2
2018-02-25T15:09:59.506Z,2
2018-02-25T15:19:51.028Z,2
2018-02-25T15:29:49.852Z,1
2018-02-25T15:39:50.898Z,2
2018-02-25T15:49:49.848Z,2
2018-02-25T15:59:50.014Z,3
2018-02-25T16:09:49.947Z,2
2018-02-25T16:19:50.250Z,2
2018-02-25T16:29:53.115Z,2
2018-02-25T16:39:49.802Z,3
2018-02-25T16:49:50.579Z,2
2018-02-25T16:59:49.873Z,3
2018-02-25T17:09:49.880Z,3
2018-02-25T17:19:49.973Z,3
2018-02-25T17:29:49.912Z,3
2018-02-25T17:39:50.007Z,2
2018-02-25T17:49:49.931Z,2
2018-02-25T17:59:49.944Z,3
2018-02-25T18:09:50.001Z,3
2018-02-25T18:19:58.112Z,2
2018-02-25T18:29:58.290Z,3
2018-02-25T18:39:56.295Z,3
2018-02-25T18:49:58.988Z,3
2018-02-25T18:59:57.775Z,4
2018-02-25T19:11:26.005Z,5
2018-02-25T19:21:27.842Z,4
2018-02-25T19:29:50.660Z,5
2018-02-25T19:39:49.938Z,5
2018-02-25T19:49:50.365Z,5
2018-02-25T19:59:50.036Z,5
2018-02-25T20:09:49.988Z,5
2018-02-25T20:19:50.415Z,5
2018-02-25T20:29:50.053Z,5
2018-02-25T20:39:50.038Z,8
2018-02-25T20:49:50.005Z,8
2018-02-25T20:59:50.325Z,7
2018-02-25T21:09:50.004Z,6
2018-02-25T21:19:53.157Z,5
2018-02-25T21:29:53.424Z,7
2018-02-25T21:39:50.390Z,8
2018-02-25T21:49:50.185Z,8
2018-02-25T21:59:50.361Z,8
2018-02-25T22:09:50.157Z,8
2018-02-25T22:19:50.237Z,8
2018-02-25T22:29:50.875Z,10
2018-02-25T22:40:07.914Z,7
2018-02-25T22:49:50.227Z,8
2018-02-25T22:59:50.164Z,8
2018-02-25T23:09:50.145Z,9
2018-02-25T23:19:50.079Z,9
2018-02-25T23:29:50.127Z,7
2018-02-25T23:39:50.101Z,7
2018-02-25T23:49:50.445Z,6
2018-02-25T23:59:50.136Z,7
